sensor_id;sensor_type;location;lat;lon;timestamp;P1;durP1;ratioP1;P2;durP2;ratioP2
26574;SDS011;67165;50.256;10.978;2023-09-18T00:00:48;5.53;;;4.95;;
26574;SDS011;67165;50.256;10.978;2023-09-18T00:03:18;5.85;;;4.97;;
26574;SDS011;67165;50.256;10.978;2023-09-18T00:05:45;6.43;;;5.03;;
26574;SDS011;67165;50.256;10.978;2023-09-18T00:08:13;8.70;;;4.97;;
26574;SDS011;67165;50.256;10.978;2023-09-18T00:10:38;7.63;;;4.68;;
26574;SDS011;67165;50.256;10.978;2023-09-18T00:13:04;5.35;;;4.85;;
26574;SDS011;67165;50.256;10.978;2023-09-18T00:15:30;5.03;;;4.50;;
26574;SDS011;67165;50.256;10.978;2023-09-18T00:17:56;6.30;;;5.05;;
26574;SDS011;67165;50.256;10.978;2023-09-18T00:20:22;4.90;;;4.47;;
26574;SDS011;67165;50.256;10.978;2023-09-18T00:22:52;5.53;;;5.03;;
26574;SDS011;67165;50.256;10.978;2023-09-18T00:25:19;6.18;;;4.55;;
26574;SDS011;67165;50.256;10.978;2023-09-18T00:27:44;5.25;;;4.72;;
26574;SDS011;67165;50.256;10.978;2023-09-18T00:30:10;5.47;;;4.50;;
26574;SDS011;67165;50.256;10.978;2023-09-18T00:32:36;6.03;;;4.60;;
26574;SDS011;67165;50.256;10.978;2023-09-18T00:35:02;4.90;;;4.40;;
26574;SDS011;67165;50.256;10.978;2023-09-18T00:37:28;4.90;;;4.40;;
26574;SDS011;67165;50.256;10.978;2023-09-18T00:39:54;7.90;;;4.47;;
26574;SDS011;67165;50.256;10.978;2023-09-18T00:42:20;7.05;;;4.70;;
26574;SDS011;67165;50.256;10.978;2023-09-18T00:44:47;5.30;;;4.40;;
26574;SDS011;67165;50.256;10.978;2023-09-18T00:47:13;7.47;;;4.53;;
26574;SDS011;67165;50.256;10.978;2023-09-18T00:49:40;6.90;;;4.18;;
26574;SDS011;67165;50.256;10.978;2023-09-18T00:52:09;5.15;;;4.65;;
26574;SDS011;67165;50.256;10.978;2023-09-18T00:54:36;5.72;;;4.60;;
26574;SDS011;67165;50.256;10.978;2023-09-18T00:57:03;8.23;;;4.55;;
26574;SDS011;67165;50.256;10.978;2023-09-18T00:59:29;4.93;;;4.32;;
26574;SDS011;67165;50.256;10.978;2023-09-18T01:01:56;5.95;;;4.30;;
26574;SDS011;67165;50.256;10.978;2023-09-18T01:04:21;5.85;;;4.43;;
26574;SDS011;67165;50.256;10.978;2023-09-18T01:06:50;5.60;;;4.22;;
26574;SDS011;67165;50.256;10.978;2023-09-18T01:09:17;6.93;;;4.57;;
26574;SDS011;67165;50.256;10.978;2023-09-18T01:12:06;5.03;;;4.50;;
26574;SDS011;67165;50.256;10.978;2023-09-18T01:17:42;5.85;;;4.90;;
26574;SDS011;67165;50.256;10.978;2023-09-18T01:20:09;5.30;;;4.80;;
26574;SDS011;67165;50.256;10.978;2023-09-18T01:22:36;7.55;;;4.65;;
26574;SDS011;67165;50.256;10.978;2023-09-18T01:25:01;5.28;;;4.78;;
26574;SDS011;67165;50.256;10.978;2023-09-18T01:27:27;5.38;;;4.38;;
26574;SDS011;67165;50.256;10.978;2023-09-18T01:29:53;5.88;;;5.03;;
26574;SDS011;67165;50.256;10.978;2023-09-18T01:32:19;4.60;;;4.20;;
26574;SDS011;67165;50.256;10.978;2023-09-18T01:34:50;6.57;;;4.68;;
26574;SDS011;67165;50.256;10.978;2023-09-18T01:37:19;5.55;;;4.93;;
26574;SDS011;67165;50.256;10.978;2023-09-18T01:39:48;5.72;;;5.07;;
26574;SDS011;67165;50.256;10.978;2023-09-18T01:42:15;5.30;;;4.40;;
26574;SDS011;67165;50.256;10.978;2023-09-18T01:44:41;6.28;;;4.88;;
26574;SDS011;67165;50.256;10.978;2023-09-18T01:47:13;5.18;;;4.47;;
26574;SDS011;67165;50.256;10.978;2023-09-18T01:49:41;5.18;;;4.68;;
26574;SDS011;67165;50.256;10.978;2023-09-18T01:52:08;7.13;;;5.18;;
26574;SDS011;67165;50.256;10.978;2023-09-18T01:54:34;5.22;;;4.32;;
26574;SDS011;67165;50.256;10.978;2023-09-18T01:57:00;5.07;;;4.57;;
26574;SDS011;67165;50.256;10.978;2023-09-18T01:59:27;6.10;;;4.90;;
26574;SDS011;67165;50.256;10.978;2023-09-18T02:01:53;5.10;;;4.57;;
26574;SDS011;67165;50.256;10.978;2023-09-18T02:04:20;6.00;;;5.00;;
26574;SDS011;67165;50.256;10.978;2023-09-18T02:06:46;5.75;;;5.05;;
26574;SDS011;67165;50.256;10.978;2023-09-18T02:09:13;5.80;;;4.97;;
26574;SDS011;67165;50.256;10.978;2023-09-18T02:11:43;5.10;;;4.60;;
26574;SDS011;67165;50.256;10.978;2023-09-18T02:14:10;5.68;;;5.10;;
26574;SDS011;67165;50.256;10.978;2023-09-18T02:16:37;5.95;;;4.90;;
26574;SDS011;67165;50.256;10.978;2023-09-18T02:19:06;5.85;;;5.25;;
26574;SDS011;67165;50.256;10.978;2023-09-18T02:21:33;7.05;;;5.18;;
26574;SDS011;67165;50.256;10.978;2023-09-18T02:24:00;6.03;;;4.95;;
26574;SDS011;67165;50.256;10.978;2023-09-18T02:26:26;5.13;;;4.65;;
26574;SDS011;67165;50.256;10.978;2023-09-18T02:28:52;6.68;;;5.30;;
26574;SDS011;67165;50.256;10.978;2023-09-18T02:31:19;7.65;;;4.88;;
26574;SDS011;67165;50.256;10.978;2023-09-18T02:33:45;5.00;;;4.50;;
26574;SDS011;67165;50.256;10.978;2023-09-18T02:36:12;5.80;;;5.20;;
26574;SDS011;67165;50.256;10.978;2023-09-18T02:38:38;5.72;;;5.13;;
26574;SDS011;67165;50.256;10.978;2023-09-18T02:41:03;6.43;;;4.95;;
26574;SDS011;67165;50.256;10.978;2023-09-18T02:43:29;5.53;;;5.03;;
26574;SDS011;67165;50.256;10.978;2023-09-18T02:45:55;6.57;;;5.45;;
26574;SDS011;67165;50.256;10.978;2023-09-18T02:48:20;5.70;;;5.10;;
26574;SDS011;67165;50.256;10.978;2023-09-18T02:50:46;5.85;;;5.00;;
26574;SDS011;67165;50.256;10.978;2023-09-18T02:55:50;5.53;;;5.03;;
26574;SDS011;67165;50.256;10.978;2023-09-18T02:58:17;5.40;;;4.80;;
26574;SDS011;67165;50.256;10.978;2023-09-18T03:00:44;6.13;;;5.22;;
26574;SDS011;67165;50.256;10.978;2023-09-18T03:03:12;5.85;;;5.07;;
26574;SDS011;67165;50.256;10.978;2023-09-18T03:05:38;7.28;;;5.40;;
26574;SDS011;67165;50.256;10.978;2023-09-18T03:08:04;5.93;;;5.22;;
26574;SDS011;67165;50.256;10.978;2023-09-18T03:10:33;5.70;;;5.10;;
26574;SDS011;67165;50.256;10.978;2023-09-18T03:13:03;5.70;;;4.95;;
26574;SDS011;67165;50.256;10.978;2023-09-18T03:15:30;6.22;;;5.60;;
26574;SDS011;67165;50.256;10.978;2023-09-18T03:17:56;8.25;;;5.30;;
26574;SDS011;67165;50.256;10.978;2023-09-18T03:20:23;6.95;;;5.10;;
26574;SDS011;67165;50.256;10.978;2023-09-18T03:22:56;6.00;;;5.40;;
26574;SDS011;67165;50.256;10.978;2023-09-18T03:25:24;8.38;;;5.22;;
26574;SDS011;67165;50.256;10.978;2023-09-18T03:27:51;6.03;;;5.25;;
26574;SDS011;67165;50.256;10.978;2023-09-18T03:30:20;5.97;;;5.00;;
26574;SDS011;67165;50.256;10.978;2023-09-18T03:32:48;6.25;;;5.00;;
26574;SDS011;67165;50.256;10.978;2023-09-18T03:35:14;6.80;;;5.00;;
26574;SDS011;67165;50.256;10.978;2023-09-18T03:37:52;6.15;;;4.78;;
26574;SDS011;67165;50.256;10.978;2023-09-18T03:40:21;5.82;;;5.22;;
26574;SDS011;67165;50.256;10.978;2023-09-18T03:42:47;5.80;;;5.15;;
26574;SDS011;67165;50.256;10.978;2023-09-18T03:45:14;5.63;;;4.97;;
26574;SDS011;67165;50.256;10.978;2023-09-18T03:47:41;5.60;;;4.93;;
26574;SDS011;67165;50.256;10.978;2023-09-18T03:50:07;5.68;;;5.07;;
26574;SDS011;67165;50.256;10.978;2023-09-18T03:52:33;6.22;;;5.15;;
26574;SDS011;67165;50.256;10.978;2023-09-18T03:54:59;6.45;;;5.00;;
26574;SDS011;67165;50.256;10.978;2023-09-18T03:57:24;6.43;;;4.90;;
26574;SDS011;67165;50.256;10.978;2023-09-18T03:59:50;6.70;;;5.32;;
26574;SDS011;67165;50.256;10.978;2023-09-18T04:02:16;8.82;;;4.93;;
26574;SDS011;67165;50.256;10.978;2023-09-18T04:04:41;5.93;;;4.90;;
26574;SDS011;67165;50.256;10.978;2023-09-18T04:07:08;5.55;;;5.00;;
26574;SDS011;67165;50.256;10.978;2023-09-18T04:09:34;6.15;;;5.20;;
26574;SDS011;67165;50.256;10.978;2023-09-18T04:12:00;5.80;;;4.78;;
26574;SDS011;67165;50.256;10.978;2023-09-18T04:14:27;5.03;;;4.50;;
26574;SDS011;67165;50.256;10.978;2023-09-18T04:16:52;5.75;;;5.07;;
26574;SDS011;67165;50.256;10.978;2023-09-18T04:19:18;6.68;;;5.28;;
26574;SDS011;67165;50.256;10.978;2023-09-18T04:21:44;5.82;;;4.65;;
26574;SDS011;67165;50.256;10.978;2023-09-18T04:24:09;5.82;;;5.15;;
26574;SDS011;67165;50.256;10.978;2023-09-18T04:26:35;6.70;;;4.75;;
26574;SDS011;67165;50.256;10.978;2023-09-18T04:29:03;7.38;;;4.85;;
26574;SDS011;67165;50.256;10.978;2023-09-18T04:31:28;5.10;;;4.55;;
26574;SDS011;67165;50.256;10.978;2023-09-18T04:33:54;5.53;;;4.88;;
26574;SDS011;67165;50.256;10.978;2023-09-18T04:36:20;5.43;;;4.85;;
26574;SDS011;67165;50.256;10.978;2023-09-18T04:38:46;5.57;;;4.45;;
26574;SDS011;67165;50.256;10.978;2023-09-18T04:41:12;5.28;;;4.78;;
26574;SDS011;67165;50.256;10.978;2023-09-18T04:43:39;6.00;;;5.00;;
26574;SDS011;67165;50.256;10.978;2023-09-18T04:46:05;5.85;;;5.03;;
26574;SDS011;67165;50.256;10.978;2023-09-18T04:48:32;5.30;;;4.55;;
26574;SDS011;67165;50.256;10.978;2023-09-18T04:50:58;5.00;;;4.38;;
26574;SDS011;67165;50.256;10.978;2023-09-18T04:53:24;5.45;;;4.95;;
26574;SDS011;67165;50.256;10.978;2023-09-18T04:55:52;5.68;;;4.88;;
26574;SDS011;67165;50.256;10.978;2023-09-18T04:58:18;6.95;;;4.70;;
26574;SDS011;67165;50.256;10.978;2023-09-18T05:00:44;5.50;;;5.00;;
26574;SDS011;67165;50.256;10.978;2023-09-18T05:03:11;5.65;;;4.57;;
26574;SDS011;67165;50.256;10.978;2023-09-18T05:05:37;4.97;;;4.47;;
26574;SDS011;67165;50.256;10.978;2023-09-18T05:08:04;5.15;;;4.47;;
26574;SDS011;67165;50.256;10.978;2023-09-18T05:10:34;4.95;;;4.45;;
26574;SDS011;67165;50.256;10.978;2023-09-18T05:13:00;5.50;;;4.90;;
26574;SDS011;67165;50.256;10.978;2023-09-18T05:15:26;5.68;;;4.72;;
26574;SDS011;67165;50.256;10.978;2023-09-18T05:17:54;4.80;;;4.40;;
26574;SDS011;67165;50.256;10.978;2023-09-18T05:20:22;7.03;;;4.85;;
26574;SDS011;67165;50.256;10.978;2023-09-18T05:22:52;6.32;;;4.93;;
26574;SDS011;67165;50.256;10.978;2023-09-18T05:25:21;6.82;;;5.07;;
26574;SDS011;67165;50.256;10.978;2023-09-18T05:27:49;5.30;;;4.80;;
26574;SDS011;67165;50.256;10.978;2023-09-18T05:30:21;5.63;;;5.05;;
26574;SDS011;67165;50.256;10.978;2023-09-18T05:32:53;5.65;;;4.68;;
26574;SDS011;67165;50.256;10.978;2023-09-18T05:35:19;6.38;;;4.97;;
26574;SDS011;67165;50.256;10.978;2023-09-18T05:37:46;6.28;;;5.20;;
26574;SDS011;67165;50.256;10.978;2023-09-18T05:40:12;6.20;;;5.25;;
26574;SDS011;67165;50.256;10.978;2023-09-18T05:42:39;6.88;;;5.18;;
26574;SDS011;67165;50.256;10.978;2023-09-18T05:45:08;5.57;;;5.03;;
26574;SDS011;67165;50.256;10.978;2023-09-18T05:47:35;7.13;;;4.93;;
26574;SDS011;67165;50.256;10.978;2023-09-18T05:50:01;8.55;;;5.43;;
26574;SDS011;67165;50.256;10.978;2023-09-18T05:52:29;5.40;;;4.68;;
26574;SDS011;67165;50.256;10.978;2023-09-18T05:54:54;5.07;;;4.57;;
26574;SDS011;67165;50.256;10.978;2023-09-18T05:57:20;5.90;;;4.78;;
26574;SDS011;67165;50.256;10.978;2023-09-18T05:59:46;5.20;;;4.68;;
26574;SDS011;67165;50.256;10.978;2023-09-18T06:02:12;8.80;;;5.30;;
26574;SDS011;67165;50.256;10.978;2023-09-18T06:04:37;5.65;;;4.90;;
26574;SDS011;67165;50.256;10.978;2023-09-18T06:07:03;6.93;;;4.63;;
26574;SDS011;67165;50.256;10.978;2023-09-18T06:09:29;6.25;;;5.20;;
26574;SDS011;67165;50.256;10.978;2023-09-18T06:11:54;13.38;;;5.25;;
26574;SDS011;67165;50.256;10.978;2023-09-18T06:14:20;6.47;;;4.60;;
26574;SDS011;67165;50.256;10.978;2023-09-18T06:16:46;6.75;;;5.00;;
26574;SDS011;67165;50.256;10.978;2023-09-18T06:19:12;7.07;;;4.97;;
26574;SDS011;67165;50.256;10.978;2023-09-18T06:21:38;5.78;;;4.90;;
26574;SDS011;67165;50.256;10.978;2023-09-18T06:24:04;8.13;;;4.88;;
26574;SDS011;67165;50.256;10.978;2023-09-18T06:26:30;6.22;;;4.93;;
26574;SDS011;67165;50.256;10.978;2023-09-18T06:28:55;6.10;;;4.93;;
26574;SDS011;67165;50.256;10.978;2023-09-18T06:31:21;7.43;;;4.88;;
26574;SDS011;67165;50.256;10.978;2023-09-18T06:33:48;7.55;;;5.15;;
26574;SDS011;67165;50.256;10.978;2023-09-18T06:36:14;6.50;;;4.88;;
26574;SDS011;67165;50.256;10.978;2023-09-18T06:38:40;4.95;;;4.45;;
26574;SDS011;67165;50.256;10.978;2023-09-18T06:41:05;5.60;;;4.68;;
26574;SDS011;67165;50.256;10.978;2023-09-18T06:43:31;6.88;;;4.95;;
26574;SDS011;67165;50.256;10.978;2023-09-18T06:45:56;9.18;;;4.80;;
26574;SDS011;67165;50.256;10.978;2023-09-18T06:48:25;13.88;;;4.97;;
26574;SDS011;67165;50.256;10.978;2023-09-18T06:50:51;10.93;;;5.07;;
26574;SDS011;67165;50.256;10.978;2023-09-18T06:53:17;6.75;;;4.93;;
26574;SDS011;67165;50.256;10.978;2023-09-18T06:55:42;5.85;;;4.50;;
26574;SDS011;67165;50.256;10.978;2023-09-18T06:58:08;5.03;;;4.53;;
26574;SDS011;67165;50.256;10.978;2023-09-18T07:00:34;5.80;;;4.70;;
26574;SDS011;67165;50.256;10.978;2023-09-18T07:03:00;6.32;;;4.78;;
26574;SDS011;67165;50.256;10.978;2023-09-18T07:05:25;6.07;;;4.88;;
26574;SDS011;67165;50.256;10.978;2023-09-18T07:07:51;7.78;;;5.50;;
26574;SDS011;67165;50.256;10.978;2023-09-18T07:10:17;9.45;;;5.50;;
26574;SDS011;67165;50.256;10.978;2023-09-18T07:12:44;8.48;;;5.18;;
26574;SDS011;67165;50.256;10.978;2023-09-18T07:15:09;7.65;;;4.88;;
26574;SDS011;67165;50.256;10.978;2023-09-18T07:17:35;7.05;;;5.10;;
26574;SDS011;67165;50.256;10.978;2023-09-18T07:20:01;9.13;;;5.32;;
26574;SDS011;67165;50.256;10.978;2023-09-18T07:22:34;9.65;;;5.55;;
26574;SDS011;67165;50.256;10.978;2023-09-18T07:25:03;7.20;;;5.53;;
26574;SDS011;67165;50.256;10.978;2023-09-18T07:27:29;7.32;;;5.60;;
26574;SDS011;67165;50.256;10.978;2023-09-18T07:29:55;7.30;;;5.50;;
26574;SDS011;67165;50.256;10.978;2023-09-18T07:32:22;12.65;;;6.10;;
26574;SDS011;67165;50.256;10.978;2023-09-18T07:34:49;6.28;;;5.68;;
26574;SDS011;67165;50.256;10.978;2023-09-18T07:37:15;7.43;;;5.20;;
26574;SDS011;67165;50.256;10.978;2023-09-18T07:39:45;7.25;;;5.35;;
26574;SDS011;67165;50.256;10.978;2023-09-18T07:42:11;10.48;;;5.68;;
26574;SDS011;67165;50.256;10.978;2023-09-18T07:44:37;9.48;;;5.47;;
26574;SDS011;67165;50.256;10.978;2023-09-18T07:47:03;10.82;;;5.78;;
26574;SDS011;67165;50.256;10.978;2023-09-18T07:49:28;7.00;;;5.30;;
26574;SDS011;67165;50.256;10.978;2023-09-18T07:51:54;5.55;;;5.05;;
26574;SDS011;67165;50.256;10.978;2023-09-18T07:54:20;9.82;;;5.30;;
26574;SDS011;67165;50.256;10.978;2023-09-18T07:56:46;8.00;;;5.82;;
26574;SDS011;67165;50.256;10.978;2023-09-18T07:59:11;6.30;;;4.88;;
26574;SDS011;67165;50.256;10.978;2023-09-18T08:01:39;6.28;;;4.90;;
26574;SDS011;67165;50.256;10.978;2023-09-18T08:04:05;5.55;;;4.63;;
26574;SDS011;67165;50.256;10.978;2023-09-18T08:06:31;6.43;;;4.90;;
26574;SDS011;67165;50.256;10.978;2023-09-18T08:08:57;7.63;;;4.28;;
26574;SDS011;67165;50.256;10.978;2023-09-18T08:11:23;6.40;;;4.90;;
26574;SDS011;67165;50.256;10.978;2023-09-18T08:13:48;6.25;;;4.65;;
26574;SDS011;67165;50.256;10.978;2023-09-18T08:16:14;5.63;;;4.53;;
26574;SDS011;67165;50.256;10.978;2023-09-18T08:18:40;6.13;;;4.68;;
26574;SDS011;67165;50.256;10.978;2023-09-18T08:21:07;6.93;;;4.47;;
26574;SDS011;67165;50.256;10.978;2023-09-18T08:23:34;5.50;;;4.63;;
26574;SDS011;67165;50.256;10.978;2023-09-18T08:26:01;5.95;;;4.72;;
26574;SDS011;67165;50.256;10.978;2023-09-18T08:28:28;5.95;;;4.80;;
26574;SDS011;67165;50.256;10.978;2023-09-18T08:30:54;6.60;;;4.78;;
26574;SDS011;67165;50.256;10.978;2023-09-18T08:33:20;8.30;;;4.65;;
26574;SDS011;67165;50.256;10.978;2023-09-18T08:35:46;6.22;;;4.88;;
26574;SDS011;67165;50.256;10.978;2023-09-18T08:38:12;5.82;;;4.68;;
26574;SDS011;67165;50.256;10.978;2023-09-18T08:40:40;5.13;;;4.35;;
26574;SDS011;67165;50.256;10.978;2023-09-18T08:43:07;6.15;;;4.80;;
26574;SDS011;67165;50.256;10.978;2023-09-18T08:48:19;8.50;;;5.07;;
26574;SDS011;67165;50.256;10.978;2023-09-18T08:50:45;8.95;;;5.10;;
26574;SDS011;67165;50.256;10.978;2023-09-18T08:53:12;12.32;;;4.88;;
26574;SDS011;67165;50.256;10.978;2023-09-18T08:55:38;5.68;;;4.68;;
26574;SDS011;67165;50.256;10.978;2023-09-18T08:58:05;7.93;;;4.95;;
26574;SDS011;67165;50.256;10.978;2023-09-18T09:00:32;8.23;;;4.93;;
26574;SDS011;67165;50.256;10.978;2023-09-18T09:03:01;5.05;;;4.55;;
26574;SDS011;67165;50.256;10.978;2023-09-18T09:05:27;8.00;;;4.60;;
26574;SDS011;67165;50.256;10.978;2023-09-18T09:07:53;5.05;;;4.40;;
26574;SDS011;67165;50.256;10.978;2023-09-18T09:10:19;5.57;;;4.68;;
26574;SDS011;67165;50.256;10.978;2023-09-18T09:15:15;6.60;;;5.13;;
26574;SDS011;67165;50.256;10.978;2023-09-18T09:17:41;6.70;;;5.18;;
26574;SDS011;67165;50.256;10.978;2023-09-18T09:20:09;7.00;;;5.05;;
26574;SDS011;67165;50.256;10.978;2023-09-18T09:22:37;7.28;;;5.13;;
26574;SDS011;67165;50.256;10.978;2023-09-18T09:25:05;7.82;;;4.65;;
26574;SDS011;67165;50.256;10.978;2023-09-18T09:27:46;6.20;;;4.88;;
26574;SDS011;67165;50.256;10.978;2023-09-18T09:30:18;7.45;;;5.00;;
26574;SDS011;67165;50.256;10.978;2023-09-18T09:32:49;11.30;;;5.22;;
26574;SDS011;67165;50.256;10.978;2023-09-18T09:35:29;7.72;;;4.80;;
26574;SDS011;67165;50.256;10.978;2023-09-18T09:40:38;8.55;;;5.03;;
26574;SDS011;67165;50.256;10.978;2023-09-18T09:43:07;6.70;;;4.75;;
26574;SDS011;67165;50.256;10.978;2023-09-18T09:45:38;7.18;;;4.78;;
26574;SDS011;67165;50.256;10.978;2023-09-18T09:48:05;7.90;;;4.70;;
26574;SDS011;67165;50.256;10.978;2023-09-18T09:50:33;16.42;;;4.60;;
26574;SDS011;67165;50.256;10.978;2023-09-18T09:53:09;9.25;;;4.70;;
26574;SDS011;67165;50.256;10.978;2023-09-18T09:55:35;8.57;;;4.90;;
26574;SDS011;67165;50.256;10.978;2023-09-18T09:58:02;7.70;;;4.90;;
26574;SDS011;67165;50.256;10.978;2023-09-18T10:03:02;8.35;;;4.60;;
26574;SDS011;67165;50.256;10.978;2023-09-18T10:05:34;8.80;;;4.10;;
26574;SDS011;67165;50.256;10.978;2023-09-18T10:08:23;7.65;;;4.30;;
26574;SDS011;67165;50.256;10.978;2023-09-18T10:10:51;7.20;;;4.10;;
26574;SDS011;67165;50.256;10.978;2023-09-18T10:13:19;9.45;;;4.03;;
26574;SDS011;67165;50.256;10.978;2023-09-18T10:15:50;7.18;;;4.18;;
26574;SDS011;67165;50.256;10.978;2023-09-18T10:18:27;8.70;;;3.97;;
26574;SDS011;67165;50.256;10.978;2023-09-18T10:26:57;7.47;;;3.53;;
26574;SDS011;67165;50.256;10.978;2023-09-18T10:29:25;7.28;;;3.15;;
26574;SDS011;67165;50.256;10.978;2023-09-18T10:31:53;5.72;;;3.35;;
26574;SDS011;67165;50.256;10.978;2023-09-18T10:34:19;5.45;;;3.10;;
26574;SDS011;67165;50.256;10.978;2023-09-18T10:36:47;9.38;;;3.28;;
26574;SDS011;67165;50.256;10.978;2023-09-18T10:39:13;9.60;;;3.40;;
26574;SDS011;67165;50.256;10.978;2023-09-18T10:41:45;8.02;;;3.03;;
26574;SDS011;67165;50.256;10.978;2023-09-18T10:44:13;7.85;;;3.03;;
26574;SDS011;67165;50.256;10.978;2023-09-18T10:46:41;6.75;;;2.80;;
26574;SDS011;67165;50.256;10.978;2023-09-18T10:49:07;7.18;;;2.80;;
26574;SDS011;67165;50.256;10.978;2023-09-18T10:51:33;5.43;;;2.78;;
26574;SDS011;67165;50.256;10.978;2023-09-18T10:53:59;6.47;;;2.58;;
26574;SDS011;67165;50.256;10.978;2023-09-18T10:56:25;8.80;;;3.05;;
26574;SDS011;67165;50.256;10.978;2023-09-18T10:59:00;8.95;;;2.80;;
26574;SDS011;67165;50.256;10.978;2023-09-18T11:01:30;6.53;;;2.53;;
26574;SDS011;67165;50.256;10.978;2023-09-18T11:04:06;6.97;;;2.60;;
26574;SDS011;67165;50.256;10.978;2023-09-18T11:09:19;5.32;;;2.33;;
26574;SDS011;67165;50.256;10.978;2023-09-18T11:12:14;8.30;;;2.70;;
26574;SDS011;67165;50.256;10.978;2023-09-18T11:17:30;5.68;;;1.90;;
26574;SDS011;67165;50.256;10.978;2023-09-18T11:20:09;4.63;;;2.25;;
26574;SDS011;67165;50.256;10.978;2023-09-18T11:28:05;3.25;;;1.92;;
26574;SDS011;67165;50.256;10.978;2023-09-18T11:30:35;5.68;;;2.20;;
26574;SDS011;67165;50.256;10.978;2023-09-18T11:33:02;10.10;;;1.98;;
26574;SDS011;67165;50.256;10.978;2023-09-18T11:35:29;15.43;;;2.20;;
26574;SDS011;67165;50.256;10.978;2023-09-18T11:38:10;6.60;;;2.00;;
26574;SDS011;67165;50.256;10.978;2023-09-18T11:40:37;8.85;;;2.40;;
26574;SDS011;67165;50.256;10.978;2023-09-18T11:43:23;6.90;;;1.80;;
26574;SDS011;67165;50.256;10.978;2023-09-18T11:45:50;7.50;;;2.25;;
26574;SDS011;67165;50.256;10.978;2023-09-18T11:48:18;6.50;;;2.00;;
26574;SDS011;67165;50.256;10.978;2023-09-18T11:50:44;5.57;;;2.05;;
26574;SDS011;67165;50.256;10.978;2023-09-18T11:53:13;7.15;;;2.05;;
26574;SDS011;67165;50.256;10.978;2023-09-18T11:55:39;6.55;;;1.60;;
26574;SDS011;67165;50.256;10.978;2023-09-18T11:58:05;4.47;;;2.00;;
26574;SDS011;67165;50.256;10.978;2023-09-18T12:00:34;6.15;;;1.92;;
26574;SDS011;67165;50.256;10.978;2023-09-18T12:03:22;5.13;;;1.90;;
26574;SDS011;67165;50.256;10.978;2023-09-18T12:05:55;7.57;;;1.83;;
26574;SDS011;67165;50.256;10.978;2023-09-18T12:08:25;8.00;;;1.92;;
26574;SDS011;67165;50.256;10.978;2023-09-18T12:10:54;6.00;;;2.00;;
26574;SDS011;67165;50.256;10.978;2023-09-18T12:13:20;7.75;;;2.10;;
26574;SDS011;67165;50.256;10.978;2023-09-18T12:15:47;7.03;;;2.10;;
26574;SDS011;67165;50.256;10.978;2023-09-18T12:18:14;4.72;;;1.98;;
26574;SDS011;67165;50.256;10.978;2023-09-18T12:20:46;6.03;;;1.75;;
26574;SDS011;67165;50.256;10.978;2023-09-18T12:23:13;4.05;;;1.90;;
26574;SDS011;67165;50.256;10.978;2023-09-18T12:25:39;6.60;;;2.10;;
26574;SDS011;67165;50.256;10.978;2023-09-18T12:28:06;9.55;;;2.60;;
26574;SDS011;67165;50.256;10.978;2023-09-18T12:30:32;6.85;;;2.33;;
26574;SDS011;67165;50.256;10.978;2023-09-18T12:32:59;5.10;;;2.25;;
26574;SDS011;67165;50.256;10.978;2023-09-18T12:35:25;5.38;;;1.88;;
26574;SDS011;67165;50.256;10.978;2023-09-18T12:37:54;5.90;;;2.10;;
26574;SDS011;67165;50.256;10.978;2023-09-18T12:40:22;5.57;;;2.15;;
26574;SDS011;67165;50.256;10.978;2023-09-18T12:42:50;5.97;;;2.25;;
26574;SDS011;67165;50.256;10.978;2023-09-18T12:45:18;4.53;;;2.00;;
26574;SDS011;67165;50.256;10.978;2023-09-18T12:47:44;7.03;;;2.10;;
26574;SDS011;67165;50.256;10.978;2023-09-18T12:50:13;8.57;;;2.40;;
26574;SDS011;67165;50.256;10.978;2023-09-18T12:52:40;5.43;;;2.22;;
26574;SDS011;67165;50.256;10.978;2023-09-18T12:55:06;6.22;;;2.50;;
26574;SDS011;67165;50.256;10.978;2023-09-18T12:57:32;4.55;;;2.38;;
26574;SDS011;67165;50.256;10.978;2023-09-18T12:59:58;6.93;;;2.50;;
26574;SDS011;67165;50.256;10.978;2023-09-18T13:02:24;6.80;;;2.60;;
26574;SDS011;67165;50.256;10.978;2023-09-18T13:04:53;5.22;;;2.40;;
26574;SDS011;67165;50.256;10.978;2023-09-18T13:07:20;7.72;;;2.60;;
26574;SDS011;67165;50.256;10.978;2023-09-18T13:10:04;7.53;;;2.58;;
26574;SDS011;67165;50.256;10.978;2023-09-18T13:17:59;9.45;;;2.13;;
26574;SDS011;67165;50.256;10.978;2023-09-18T13:20:27;5.45;;;2.40;;
26574;SDS011;67165;50.256;10.978;2023-09-18T13:22:58;5.53;;;2.40;;
26574;SDS011;67165;50.256;10.978;2023-09-18T13:25:40;7.35;;;2.20;;
26574;SDS011;67165;50.256;10.978;2023-09-18T13:28:09;3.53;;;2.10;;
26574;SDS011;67165;50.256;10.978;2023-09-18T13:30:36;7.78;;;1.90;;
26574;SDS011;67165;50.256;10.978;2023-09-18T13:33:12;5.35;;;2.08;;
26574;SDS011;67165;50.256;10.978;2023-09-18T13:35:41;5.25;;;2.15;;
26574;SDS011;67165;50.256;10.978;2023-09-18T13:38:08;2.97;;;1.73;;
26574;SDS011;67165;50.256;10.978;2023-09-18T13:40:35;4.13;;;2.20;;
26574;SDS011;67165;50.256;10.978;2023-09-18T13:43:02;6.60;;;2.38;;
26574;SDS011;67165;50.256;10.978;2023-09-18T13:45:31;4.68;;;2.13;;
26574;SDS011;67165;50.256;10.978;2023-09-18T13:48:05;10.00;;;2.20;;
26574;SDS011;67165;50.256;10.978;2023-09-18T13:50:32;6.28;;;2.33;;
26574;SDS011;67165;50.256;10.978;2023-09-18T13:52:59;5.38;;;2.58;;
26574;SDS011;67165;50.256;10.978;2023-09-18T13:55:25;6.50;;;2.13;;
26574;SDS011;67165;50.256;10.978;2023-09-18T13:57:51;5.00;;;1.90;;
26574;SDS011;67165;50.256;10.978;2023-09-18T14:00:17;6.95;;;1.75;;
26574;SDS011;67165;50.256;10.978;2023-09-18T14:02:43;7.85;;;2.42;;
26574;SDS011;67165;50.256;10.978;2023-09-18T14:05:09;8.55;;;2.53;;
26574;SDS011;67165;50.256;10.978;2023-09-18T14:07:36;9.52;;;2.40;;
26574;SDS011;67165;50.256;10.978;2023-09-18T14:10:08;6.35;;;2.60;;
26574;SDS011;67165;50.256;10.978;2023-09-18T14:12:35;4.95;;;2.20;;
26574;SDS011;67165;50.256;10.978;2023-09-18T14:15:06;5.22;;;2.28;;
26574;SDS011;67165;50.256;10.978;2023-09-18T14:17:36;5.32;;;2.40;;
26574;SDS011;67165;50.256;10.978;2023-09-18T14:20:03;6.22;;;2.10;;
26574;SDS011;67165;50.256;10.978;2023-09-18T14:22:36;4.88;;;2.08;;
26574;SDS011;67165;50.256;10.978;2023-09-18T14:25:02;6.30;;;1.98;;
26574;SDS011;67165;50.256;10.978;2023-09-18T14:27:30;4.18;;;2.17;;
26574;SDS011;67165;50.256;10.978;2023-09-18T14:29:57;7.63;;;2.35;;
26574;SDS011;67165;50.256;10.978;2023-09-18T14:32:23;8.00;;;2.58;;
26574;SDS011;67165;50.256;10.978;2023-09-18T14:34:48;7.43;;;2.35;;
26574;SDS011;67165;50.256;10.978;2023-09-18T14:37:14;4.82;;;2.03;;
26574;SDS011;67165;50.256;10.978;2023-09-18T14:39:40;5.88;;;2.33;;
26574;SDS011;67165;50.256;10.978;2023-09-18T14:42:05;5.30;;;2.10;;
26574;SDS011;67165;50.256;10.978;2023-09-18T14:44:31;5.50;;;2.00;;
26574;SDS011;67165;50.256;10.978;2023-09-18T14:46:58;5.50;;;2.53;;
26574;SDS011;67165;50.256;10.978;2023-09-18T14:49:24;6.47;;;2.10;;
26574;SDS011;67165;50.256;10.978;2023-09-18T14:51:52;7.35;;;2.15;;
26574;SDS011;67165;50.256;10.978;2023-09-18T14:54:19;7.57;;;2.33;;
26574;SDS011;67165;50.256;10.978;2023-09-18T14:56:44;6.22;;;2.15;;
26574;SDS011;67165;50.256;10.978;2023-09-18T14:59:12;4.10;;;2.13;;
26574;SDS011;67165;50.256;10.978;2023-09-18T15:01:37;7.10;;;2.60;;
26574;SDS011;67165;50.256;10.978;2023-09-18T15:04:03;6.40;;;2.20;;
26574;SDS011;67165;50.256;10.978;2023-09-18T15:06:29;4.85;;;2.10;;
26574;SDS011;67165;50.256;10.978;2023-09-18T15:08:55;9.10;;;5.57;;
26574;SDS011;67165;50.256;10.978;2023-09-18T15:11:20;8.27;;;4.45;;
26574;SDS011;67165;50.256;10.978;2023-09-18T15:13:46;13.45;;;3.80;;